| time (UTC) | temp C | wind direction | speed KPH | gust KPH | rain 1hr cm | rain 24hr cm | rain mn cm | humidity % | barometer mb |
| 20260507083313 | 20 | 19 | 4.8 | 12.9 | 0.00 | 0.00 | 0.00 | 67 | 1014.0 |
| 20260507082813 | 20 | 80 | 1.6 | 8.0 | 0.00 | 0.00 | 0.00 | 63 | 1014.0 |
| 20260507082312 | 20 | 4 | 4.8 | 9.7 | 0.00 | 0.00 | 0.00 | 65 | 1014.0 |
| 20260507081812 | 20 | 317 | 6.4 | 14.5 | 0.00 | 0.00 | 0.00 | 56 | 1014.0 |
| 20260507081313 | 20 | 286 | 3.2 | 8.0 | 0.00 | 0.00 | 0.00 | 55 | 1014.0 |
| 20260507080813 | 20 | 276 | 1.6 | 3.2 | 0.00 | 0.00 | 0.00 | 56 | 1014.0 |
| 20260507080313 | 20 | 232 | 3.2 | 4.8 | 0.00 | 0.00 | 0.00 | 56 | 1014.0 |
| 20260507075813 | 20 | 337 | 0.0 | 3.2 | 0.00 | 0.00 | 0.00 | 58 | 1014.0 |
| 20260507075313 | 20 | 75 | 1.6 | 3.2 | 0.00 | 0.00 | 0.00 | 62 | 1014.0 |
| 20260507074812 | 20 | 76 | 0.0 | 4.8 | 0.00 | 0.00 | 0.00 | 61 | 1014.0 |
| 20260507074312 | 20 | 76 | 0.0 | 4.8 | 0.00 | 0.00 | 0.00 | 65 | 1014.0 |
| 20260507073812 | 19 | 31 | 1.6 | 8.0 | 0.00 | 0.00 | 0.00 | 64 | 1014.0 |
| 20260507073313 | 20 | 31 | 1.6 | 4.8 | 0.00 | 0.00 | 0.00 | 63 | 1014.0 |
| 20260507072812 | 19 | 31 | 0.0 | 4.8 | 0.00 | 0.00 | 0.00 | 63 | 1014.0 |
| 20260507072313 | 19 | 30 | 1.6 | 4.8 | 0.00 | 0.00 | 0.00 | 66 | 1014.0 |
| 20260507071813 | 19 | 30 | 0.0 | 0.0 | 0.00 | 0.00 | 0.00 | 67 | 1014.0 |
| 20260507071314 | 18 | 30 | 0.0 | 1.6 | 0.00 | 0.00 | 0.00 | 69 | 1014.0 |
| 20260507070813 | 18 | 30 | 1.6 | 1.6 | 0.00 | 0.00 | 0.00 | 73 | 1014.0 |
| 20260507070312 | 18 | 30 | 1.6 | 3.2 | 0.00 | 0.00 | 0.00 | 72 | 1014.0 |
| 20260507065812 | 18 | 54 | 1.6 | 3.2 | 0.00 | 0.00 | 0.00 | 74 | 1014.0 |
| 20260507065312 | 18 | 82 | 3.2 | 3.2 | 0.00 | 0.00 | 0.00 | 75 | 1014.0 |
| 20260507064812 | 18 | 83 | 3.2 | 11.3 | 0.00 | 0.00 | 0.00 | 75 | 1014.0 |
| 20260507064312 | 17 | 105 | 1.6 | 1.6 | 0.00 | 0.00 | 0.00 | 80 | 1014.0 |
| 20260507063812 | 17 | 104 | 4.8 | 4.8 | 0.00 | 0.00 | 0.00 | 82 | 1014.0 |
| 20260507063312 | 17 | 101 | 1.6 | 3.2 | 0.00 | 0.00 | 0.00 | 83 | 1014.0 |
| 20260507062812 | 16 | 102 | 0.0 | 1.6 | 0.00 | 0.00 | 0.00 | 84 | 1014.0 |
| 20260507062312 | 16 | 102 | 0.0 | 1.6 | 0.00 | 0.00 | 0.00 | 85 | 1014.0 |
| 20260507061813 | 17 | 101 | 1.6 | 3.2 | 0.00 | 0.00 | 0.00 | 84 | 1014.0 |
| 20260507061312 | 17 | 101 | 3.2 | 8.0 | 0.00 | 0.00 | 0.00 | 83 | 1014.0 |
| 20260507060812 | 18 | 85 | 3.2 | 4.8 | 0.00 | 0.00 | 0.00 | 78 | 1014.0 |
| 20260507060312 | 17 | 240 | 4.8 | 4.8 | 0.00 | 0.00 | 0.00 | 75 | 1014.0 |
| 20260507055812 | 17 | 237 | 4.8 | 9.7 | 0.00 | 0.00 | 0.00 | 77 | 1014.0 |
| 20260507055312 | 17 | 255 | 6.4 | 11.3 | 0.00 | 0.00 | 0.00 | 78 | 1013.0 |
| 20260507054813 | 16 | 242 | 4.8 | 9.7 | 0.00 | 0.00 | 0.00 | 86 | 1013.0 |
| 20260507054312 | 15 | 223 | 1.6 | 3.2 | 0.00 | 0.00 | 0.00 | 93 | 1013.0 |
| 20260507053812 | 15 | 222 | 1.6 | 3.2 | 0.00 | 0.00 | 0.00 | 93 | 1013.0 |
| 20260507053312 | 14 | 221 | 0.0 | 0.0 | 0.00 | 0.00 | 0.00 | 94 | 1013.0 |
| 20260507052813 | 14 | 221 | 1.6 | 3.2 | 0.00 | 0.00 | 0.00 | 94 | 1013.0 |
| 20260507052312 | 14 | 223 | 0.0 | 0.0 | 0.00 | 0.00 | 0.00 | 94 | 1013.0 |
| 20260507051812 | 14 | 222 | 0.0 | 1.6 | 0.00 | 0.00 | 0.00 | 94 | 1013.0 |
| 20260507051313 | 14 | 222 | 1.6 | 1.6 | 0.00 | 0.00 | 0.00 | 94 | 1013.0 |
| 20260507050813 | 14 | 223 | 0.0 | 0.0 | 0.00 | 0.00 | 0.00 | 94 | 1013.0 |
| 20260507050313 | 14 | 223 | 1.6 | 3.2 | 0.00 | 0.00 | 0.00 | 93 | 1013.0 |
| 20260507045813 | 15 | 223 | 0.0 | 1.6 | 0.00 | 0.00 | 0.00 | 93 | 1013.0 |
| 20260507045314 | 15 | 228 | 3.2 | 3.2 | 0.00 | 0.00 | 0.00 | 94 | 1013.0 |
| 20260507044812 | 14 | 228 | 0.0 | 1.6 | 0.00 | 0.00 | 0.00 | 94 | 1013.0 |
| 20260507044312 | 14 | 228 | 1.6 | 3.2 | 0.00 | 0.00 | 0.00 | 94 | 1013.0 |
| 20260507043329 | 13 | 228 | 4.8 | 4.8 | 0.00 | 0.00 | 0.00 | 95 | 1013.0 |
| 20260507042815 | 13 | 227 | 3.2 | 4.8 | 0.00 | 0.00 | 0.00 | 96 | 1012.0 |
| 20260507042313 | 13 | 193 | 3.2 | 3.2 | 0.00 | 0.00 | 0.00 | 96 | 1012.0 |
| 20260507041812 | 13 | 193 | 0.0 | 3.2 | 0.00 | 0.00 | 0.00 | 96 | 1013.0 |
| 20260507041312 | 13 | 193 | 3.2 | 3.2 | 0.00 | 0.00 | 0.00 | 96 | 1013.0 |
| 20260507040812 | 13 | 193 | 1.6 | 1.6 | 0.00 | 0.00 | 0.00 | 96 | 1012.0 |
| 20260507040313 | 12 | 192 | 1.6 | 1.6 | 0.00 | 0.00 | 0.00 | 96 | 1012.0 |
| 20260507035812 | 12 | 192 | 0.0 | 0.0 | 0.00 | 0.00 | 0.00 | 96 | 1012.0 |
| 20260507035312 | 12 | 192 | 0.0 | 0.0 | 0.00 | 0.00 | 0.00 | 95 | 1012.0 |
| 20260507034813 | 13 | 192 | 0.0 | 1.6 | 0.00 | 0.00 | 0.00 | 95 | 1012.0 |
| 20260507034313 | 13 | 192 | 1.6 | 1.6 | 0.00 | 0.00 | 0.00 | 96 | 1012.0 |
| 20260507033813 | 13 | 192 | 0.0 | 3.2 | 0.00 | 0.00 | 0.00 | 96 | 1012.0 |
| 20260507033312 | 13 | 192 | 1.6 | 1.6 | 0.00 | 0.00 | 0.00 | 95 | 1012.0 |
| 20260507032814 | 13 | 191 | 3.2 | 3.2 | 0.00 | 0.00 | 0.00 | 95 | 1012.0 |
| 20260507032313 | 13 | 191 | 3.2 | 3.2 | 0.00 | 0.00 | 0.00 | 95 | 1012.0 |
| 20260507031813 | 13 | 191 | 1.6 | 1.6 | 0.00 | 0.00 | 0.00 | 95 | 1012.0 |
| 20260507031312 | 13 | 191 | 1.6 | 1.6 | 0.00 | 0.00 | 0.00 | 95 | 1012.0 |
| 20260507030812 | 13 | 191 | 1.6 | 3.2 | 0.00 | 0.00 | 0.00 | 94 | 1012.0 |
| 20260507030312 | 13 | 190 | 3.2 | 4.8 | 0.00 | 0.00 | 0.00 | 94 | 1012.0 |
| 20260507025813 | 13 | 322 | 1.6 | 1.6 | 0.00 | 0.00 | 0.00 | 94 | 1012.0 |
| 20260507025312 | 13 | 322 | 1.6 | 1.6 | 0.00 | 0.00 | 0.00 | 94 | 1012.0 |
| 20260507024812 | 13 | 322 | 0.0 | 1.6 | 0.00 | 0.00 | 0.00 | 93 | 1012.0 |
| 20260507024313 | 14 | 322 | 1.6 | 1.6 | 0.00 | 0.00 | 0.00 | 93 | 1012.0 |
| 20260507023813 | 14 | 322 | 1.6 | 3.2 | 0.00 | 0.00 | 0.00 | 93 | 1012.0 |
| 20260507023312 | 14 | 322 | 1.6 | 3.2 | 0.00 | 0.00 | 0.00 | 92 | 1012.0 |
| 20260507022813 | 14 | 322 | 1.6 | 1.6 | 0.00 | 0.00 | 0.00 | 92 | 1012.0 |
| 20260507022313 | 15 | 322 | 1.6 | 1.6 | 0.00 | 0.00 | 0.00 | 91 | 1012.0 |
| 20260507021813 | 15 | 322 | 0.0 | 1.6 | 0.00 | 0.00 | 0.00 | 92 | 1012.0 |
| 20260507021313 | 15 | 322 | 1.6 | 1.6 | 0.00 | 0.00 | 0.00 | 91 | 1012.0 |
| 20260507020812 | 15 | 322 | 3.2 | 3.2 | 0.00 | 0.00 | 0.00 | 91 | 1012.0 |
| 20260507020314 | 15 | 323 | 4.8 | 4.8 | 0.00 | 0.00 | 0.00 | 91 | 1012.0 |
| 20260507015812 | 15 | 323 | 0.0 | 0.0 | 0.00 | 0.00 | 0.00 | 91 | 1012.0 |
| 20260507015312 | 15 | 323 | 0.0 | 1.6 | 0.00 | 0.00 | 0.00 | 91 | 1012.0 |
| 20260507014813 | 15 | 323 | 0.0 | 0.0 | 0.00 | 0.00 | 0.00 | 91 | 1012.0 |
| 20260507014312 | 15 | 323 | 3.2 | 8.0 | 0.00 | 0.00 | 0.00 | 91 | 1012.0 |
| 20260507013812 | 15 | 323 | 3.2 | 3.2 | 0.00 | 0.00 | 0.00 | 91 | 1012.0 |
| 20260507012828 | 15 | 323 | 0.0 | 1.6 | 0.00 | 0.00 | 0.00 | 90 | 1012.0 |
| 20260507012312 | 15 | 323 | 1.6 | 3.2 | 0.00 | 0.00 | 0.00 | 89 | 1012.0 |
| 20260507011812 | 15 | 323 | 1.6 | 1.6 | 0.00 | 0.00 | 0.00 | 88 | 1012.0 |
| 20260507011313 | 15 | 323 | 0.0 | 0.0 | 0.00 | 0.00 | 0.00 | 88 | 1012.0 |
| 20260507010818 | 15 | 323 | 0.0 | 1.6 | 0.00 | 0.00 | 0.00 | 87 | 1012.0 |
| 20260507010312 | 15 | 323 | 1.6 | 3.2 | 0.00 | 0.00 | 0.00 | 87 | 1012.0 |
| 20260507005812 | 15 | 323 | 1.6 | 1.6 | 0.00 | 0.00 | 0.00 | 87 | 1012.0 |
| 20260507005312 | 15 | 323 | 3.2 | 4.8 | 0.00 | 0.00 | 0.00 | 87 | 1012.0 |
| 20260507004812 | 15 | 323 | 4.8 | 4.8 | 0.00 | 0.00 | 0.00 | 86 | 1012.0 |
| 20260507004313 | 16 | 324 | 1.6 | 3.2 | 0.00 | 0.00 | 0.00 | 85 | 1012.0 |
| 20260507003812 | 16 | 323 | 1.6 | 1.6 | 0.00 | 0.00 | 0.00 | 85 | 1012.0 |
| 20260507003313 | 16 | 323 | 1.6 | 1.6 | 0.00 | 0.00 | 0.00 | 84 | 1012.0 |
| 20260507002812 | 16 | 323 | 0.0 | 0.0 | 0.00 | 0.00 | 0.00 | 82 | 1012.0 |
| 20260507002314 | 16 | 323 | 0.0 | 1.6 | 0.00 | 0.00 | 0.00 | 82 | 1012.0 |
| 20260507001813 | 16 | 323 | 1.6 | 4.8 | 0.00 | 0.00 | 0.00 | 82 | 1012.0 |
| 20260507001312 | 16 | 324 | 6.4 | 8.0 | 0.00 | 0.00 | 0.00 | 82 | 1012.0 |
| 20260507000812 | 16 | 322 | 0.0 | 0.0 | 0.00 | 0.00 | 0.00 | 82 | 1012.0 |
| 20260507000320 | 16 | 322 | 1.6 | 3.2 | 0.00 | 0.00 | 0.00 | 82 | 1013.0 |
| 20260506235812 | 16 | 322 | 3.2 | 3.2 | 0.00 | 0.00 | 0.00 | 81 | 1012.0 |
| 20260506235312 | 16 | 322 | 0.0 | 1.6 | 0.00 | 0.00 | 0.00 | 80 | 1012.0 |
| 20260506234812 | 17 | 316 | 6.4 | 8.0 | 0.00 | 0.00 | 0.00 | 79 | 1012.0 |
| 20260506234312 | 17 | 211 | 3.2 | 4.8 | 0.00 | 0.00 | 0.00 | 78 | 1012.0 |
| 20260506233323 | 17 | 181 | 6.4 | 11.3 | 0.00 | 0.00 | 0.00 | 75 | 1012.0 |
| 20260506232812 | 17 | 285 | 3.2 | 11.3 | 0.00 | 0.00 | 0.00 | 77 | 1012.0 |
| 20260506232312 | 17 | 285 | 3.2 | 8.0 | 0.00 | 0.00 | 0.00 | 77 | 1012.0 |
| 20260506231812 | 17 | 305 | 8.0 | 11.3 | 0.00 | 0.00 | 0.00 | 76 | 1012.0 |
| 20260506231312 | 17 | 286 | 4.8 | 8.0 | 0.00 | 0.00 | 0.00 | 77 | 1012.0 |
| 20260506230813 | 17 | 207 | 6.4 | 11.3 | 0.00 | 0.00 | 0.00 | 75 | 1012.0 |
| 20260506230312 | 18 | 181 | 8.0 | 12.9 | 0.00 | 0.00 | 0.00 | 74 | 1012.0 |
| 20260506225812 | 18 | 227 | 9.7 | 14.5 | 0.00 | 0.00 | 0.00 | 74 | 1012.0 |
| 20260506225312 | 17 | 200 | 12.9 | 20.9 | 0.00 | 0.00 | 0.00 | 75 | 1012.0 |
| 20260506224812 | 17 | 212 | 8.0 | 16.1 | 0.00 | 0.00 | 0.00 | 76 | 1012.0 |
| 20260506224313 | 17 | 177 | 12.9 | 17.7 | 0.00 | 0.00 | 0.00 | 75 | 1012.0 |
| 20260506223815 | 17 | 202 | 9.7 | 16.1 | 0.00 | 0.00 | 0.00 | 76 | 1012.0 |
| 20260506223313 | 17 | 185 | 8.0 | 20.9 | 0.00 | 0.00 | 0.00 | 77 | 1012.0 |
| 20260506222812 | 17 | 174 | 9.7 | 14.5 | 0.00 | 0.00 | 0.00 | 77 | 1012.0 |
| 20260506222312 | 17 | 192 | 8.0 | 12.9 | 0.00 | 0.00 | 0.00 | 78 | 1012.0 |
| 20260506221812 | 17 | 180 | 4.8 | 9.7 | 0.00 | 0.00 | 0.00 | 78 | 1012.0 |
| 20260506221313 | 17 | 198 | 3.2 | 8.0 | 0.00 | 0.00 | 0.00 | 78 | 1012.0 |
| 20260506220812 | 17 | 184 | 3.2 | 3.2 | 0.00 | 0.00 | 0.00 | 78 | 1012.0 |
| 20260506220312 | 17 | 131 | 4.8 | 4.8 | 0.00 | 0.00 | 0.00 | 78 | 1012.0 |
| 20260506215813 | 17 | 217 | 1.6 | 8.0 | 0.00 | 0.00 | 0.18 | 79 | 1012.0 |
| 20260506215313 | 17 | 83 | 1.6 | 4.8 | 0.00 | 0.00 | 0.18 | 80 | 1012.0 |
| 20260506214812 | 16 | 47 | 0.0 | 3.2 | 0.00 | 0.00 | 0.18 | 82 | 1012.0 |
| 20260506214314 | 17 | 47 | 0.0 | 1.6 | 0.00 | 0.00 | 0.18 | 81 | 1012.0 |
| 20260506213813 | 17 | 47 | 3.2 | 4.8 | 0.00 | 0.00 | 0.18 | 81 | 1012.0 |
| 20260506213312 | 16 | 46 | 4.8 | 8.0 | 0.00 | 0.00 | 0.18 | 84 | 1012.0 |
| 20260506212812 | 15 | 123 | 3.2 | 3.2 | 0.00 | 0.00 | 0.18 | 90 | 1012.0 |
| 20260506212313 | 15 | 123 | 1.6 | 1.6 | 0.00 | 0.00 | 0.18 | 91 | 1012.0 |
| 20260506211812 | 15 | 123 | 1.6 | 1.6 | 0.00 | 0.00 | 0.18 | 91 | 1012.0 |
| 20260506211312 | 15 | 123 | 1.6 | 1.6 | 0.00 | 0.00 | 0.18 | 91 | 1012.0 |
| 20260506210813 | 15 | 123 | 1.6 | 3.2 | 0.00 | 0.00 | 0.18 | 91 | 1012.0 |
| 20260506210312 | 15 | 237 | 3.2 | 4.8 | 0.00 | 0.00 | 0.18 | 91 | 1012.0 |
| 20260506205813 | 15 | 238 | 1.6 | 3.2 | 0.00 | 0.00 | 0.18 | 92 | 1012.0 |
| 20260506205314 | 15 | 238 | 3.2 | 3.2 | 0.00 | 0.00 | 0.18 | 92 | 1012.0 |
| 20260506204813 | 15 | 239 | 1.6 | 3.2 | 0.00 | 0.00 | 0.18 | 90 | 1012.0 |
| 20260506204314 | 15 | 239 | 0.0 | 1.6 | 0.00 | 0.00 | 0.18 | 90 | 1012.0 |
| 20260506203813 | 15 | 239 | 0.0 | 3.2 | 0.00 | 0.00 | 0.18 | 90 | 1012.0 |
| 20260506203313 | 16 | 239 | 0.0 | 3.2 | 0.00 | 0.00 | 0.18 | 90 | 1012.0 |
| 20260506202813 | 16 | 239 | 0.0 | 1.6 | 0.00 | 0.00 | 0.18 | 89 | 1012.0 |
| 20260506202314 | 16 | 239 | 1.6 | 1.6 | 0.00 | 0.00 | 0.18 | 89 | 1012.0 |
| 20260506201813 | 15 | 239 | 1.6 | 1.6 | 0.00 | 0.00 | 0.18 | 90 | 1012.0 |
| 20260506201312 | 15 | 239 | 3.2 | 4.8 | 0.00 | 0.00 | 0.18 | 89 | 1012.0 |
| 20260506200812 | 16 | 240 | 0.0 | 1.6 | 0.00 | 0.00 | 0.18 | 88 | 1012.0 |
| 20260506200313 | 16 | 240 | 1.6 | 3.2 | 0.00 | 0.00 | 0.18 | 88 | 1012.0 |
| 20260506195813 | 16 | 240 | 0.0 | 0.0 | 0.00 | 0.00 | 0.18 | 87 | 1012.0 |
| 20260506195319 | 16 | 240 | 0.0 | 1.6 | 0.00 | 0.00 | 0.18 | 87 | 1012.0 |
| 20260506194813 | 16 | 234 | 4.8 | 4.8 | 0.00 | 0.00 | 0.18 | 86 | 1012.0 |
| 20260506194312 | 16 | 336 | 0.0 | 3.2 | 0.00 | 0.00 | 0.18 | 85 | 1012.0 |
| 20260506193813 | 16 | 336 | 1.6 | 3.2 | 0.00 | 0.00 | 0.18 | 85 | 1012.0 |
| 20260506193312 | 16 | 336 | 4.8 | 4.8 | 0.00 | 0.00 | 0.18 | 85 | 1012.0 |
| 20260506192812 | 16 | 337 | 0.0 | 3.2 | 0.00 | 0.00 | 0.18 | 84 | 1012.0 |
| 20260506192312 | 16 | 337 | 1.6 | 3.2 | 0.00 | 0.00 | 0.18 | 85 | 1012.0 |
| 20260506191812 | 16 | 337 | 0.0 | 0.0 | 0.00 | 0.00 | 0.18 | 84 | 1012.0 |
| 20260506191312 | 16 | 337 | 1.6 | 1.6 | 0.00 | 0.00 | 0.18 | 83 | 1012.0 |
| 20260506190813 | 16 | 337 | 0.0 | 0.0 | 0.00 | 0.00 | 0.18 | 83 | 1012.0 |
| 20260506190312 | 17 | 337 | 0.0 | 0.0 | 0.00 | 0.00 | 0.18 | 83 | 1012.0 |
| 20260506185813 | 17 | 337 | 1.6 | 3.2 | 0.00 | 0.00 | 0.18 | 82 | 1011.0 |
| 20260506185312 | 17 | 337 | 0.0 | 0.0 | 0.00 | 0.00 | 0.18 | 80 | 1012.0 |
| 20260506184812 | 17 | 337 | 3.2 | 4.8 | 0.00 | 0.00 | 0.18 | 80 | 1011.0 |
| 20260506184313 | 17 | 337 | 4.8 | 8.0 | 0.00 | 0.00 | 0.18 | 80 | 1011.0 |
| 20260506183814 | 17 | 0 | 4.8 | 4.8 | 0.00 | 0.00 | 0.18 | 79 | 1011.0 |
| 20260506183312 | 17 | 357 | 8.0 | 12.9 | 0.00 | 0.00 | 0.18 | 80 | 1011.0 |
| 20260506182813 | 17 | 356 | 8.0 | 12.9 | 0.00 | 0.00 | 0.18 | 79 | 1011.0 |
| 20260506182312 | 17 | 352 | 6.4 | 9.7 | 0.00 | 0.00 | 0.18 | 79 | 1011.0 |
| 20260506181812 | 17 | 345 | 4.8 | 9.7 | 0.00 | 0.00 | 0.18 | 78 | 1010.0 |
| 20260506181312 | 17 | 311 | 8.0 | 11.3 | 0.00 | 0.00 | 0.18 | 78 | 1011.0 |
| 20260506180813 | 18 | 326 | 6.4 | 8.0 | 0.00 | 0.00 | 0.18 | 78 | 1010.0 |
| 20260506180313 | 18 | 305 | 8.0 | 12.9 | 0.00 | 0.00 | 0.18 | 77 | 1010.0 |
| 20260506175812 | 18 | 280 | 1.6 | 11.3 | 0.00 | 0.00 | 0.18 | 75 | 1010.0 |
| 20260506175312 | 19 | 274 | 3.2 | 4.8 | 0.00 | 0.00 | 0.18 | 74 | 1010.0 |
| 20260506174812 | 19 | 221 | 1.6 | 1.6 | 0.00 | 0.00 | 0.18 | 73 | 1010.0 |
| 20260506174313 | 20 | 221 | 1.6 | 1.6 | 0.00 | 0.00 | 0.18 | 71 | 1010.0 |
| 20260506173813 | 20 | 221 | 1.6 | 4.8 | 0.00 | 0.00 | 0.18 | 71 | 1010.0 |
| 20260506173312 | 20 | 198 | 1.6 | 1.6 | 0.00 | 0.00 | 0.18 | 69 | 1010.0 |
| 20260506172812 | 20 | 220 | 3.2 | 4.8 | 0.00 | 0.00 | 0.18 | 68 | 1010.0 |
| 20260506172312 | 20 | 196 | 1.6 | 4.8 | 0.00 | 0.00 | 0.18 | 67 | 1010.0 |
| 20260506171813 | 20 | 200 | 4.8 | 8.0 | 0.00 | 0.00 | 0.18 | 68 | 1010.0 |
| 20260506171313 | 20 | 226 | 4.8 | 8.0 | 0.00 | 0.00 | 0.18 | 68 | 1010.0 |
| 20260506170813 | 20 | 205 | 8.0 | 11.3 | 0.00 | 0.00 | 0.18 | 67 | 1010.0 |
| 20260506170313 | 20 | 195 | 9.7 | 14.5 | 0.00 | 0.00 | 0.18 | 66 | 1010.0 |
| 20260506165813 | 20 | 192 | 8.0 | 12.9 | 0.00 | 0.00 | 0.18 | 66 | 1010.0 |
| 20260506165312 | 21 | 195 | 6.4 | 11.3 | 0.00 | 0.00 | 0.18 | 66 | 1010.0 |
| 20260506164813 | 21 | 190 | 6.4 | 11.3 | 0.00 | 0.00 | 0.18 | 65 | 1010.0 |
| 20260506164312 | 21 | 199 | 8.0 | 22.5 | 0.00 | 0.00 | 0.18 | 64 | 1010.0 |
| 20260506163813 | 21 | 198 | 12.9 | 20.9 | 0.00 | 0.00 | 0.18 | 63 | 1010.0 |
| 20260506163312 | 21 | 178 | 11.3 | 17.7 | 0.00 | 0.00 | 0.18 | 62 | 1010.0 |
| 20260506162814 | 21 | 165 | 16.1 | 20.9 | 0.00 | 0.00 | 0.18 | 63 | 1010.0 |
| 20260506162312 | 21 | 165 | 11.3 | 17.7 | 0.00 | 0.00 | 0.18 | 63 | 1010.0 |
| 20260506161812 | 21 | 219 | 14.5 | 24.1 | 0.00 | 0.00 | 0.18 | 62 | 1010.0 |
| 20260506161313 | 21 | 209 | 8.0 | 17.7 | 0.00 | 0.00 | 0.18 | 63 | 1010.0 |
| 20260506160812 | 21 | 156 | 16.1 | 20.9 | 0.00 | 0.00 | 0.18 | 64 | 1010.0 |
| 20260506160315 | 21 | 190 | 9.7 | 17.7 | 0.00 | 0.00 | 0.18 | 64 | 1010.0 |
| 20260506155814 | 21 | 182 | 11.3 | 17.7 | 0.00 | 0.00 | 0.18 | 62 | 1010.0 |
| 20260506155312 | 21 | 164 | 12.9 | 24.1 | 0.00 | 0.00 | 0.18 | 62 | 1010.0 |
| 20260506154812 | 22 | 179 | 17.7 | 22.5 | 0.00 | 0.00 | 0.18 | 61 | 1010.0 |
| 20260506154313 | 22 | 182 | 12.9 | 17.7 | 0.00 | 0.00 | 0.18 | 61 | 1010.0 |
| 20260506153814 | 22 | 175 | 14.5 | 20.9 | 0.00 | 0.00 | 0.18 | 61 | 1010.0 |
| 20260506153312 | 22 | 180 | 14.5 | 22.5 | 0.00 | 0.00 | 0.18 | 60 | 1010.0 |
| 20260506152813 | 22 | 181 | 14.5 | 22.5 | 0.00 | 0.00 | 0.18 | 61 | 1010.0 |
| 20260506152316 | 22 | 179 | 14.5 | 24.1 | 0.00 | 0.00 | 0.18 | 62 | 1010.0 |
| 20260506151812 | 22 | 192 | 6.4 | 16.1 | 0.00 | 0.00 | 0.18 | 63 | 1010.0 |
| 20260506151319 | 22 | 199 | 8.0 | 17.7 | 0.00 | 0.00 | 0.18 | 62 | 1010.0 |
| 20260506150812 | 22 | 200 | 14.5 | 24.1 | 0.00 | 0.00 | 0.18 | 64 | 1010.0 |
| 20260506150312 | 22 | 174 | 8.0 | 12.9 | 0.00 | 0.00 | 0.18 | 66 | 1010.0 |
| 20260506145812 | 22 | 164 | 9.7 | 17.7 | 0.00 | 0.00 | 0.18 | 63 | 1010.0 |
| 20260506145312 | 22 | 190 | 14.5 | 17.7 | 0.00 | 0.00 | 0.18 | 64 | 1010.0 |
| 20260506144813 | 22 | 166 | 8.0 | 20.9 | 0.00 | 0.00 | 0.18 | 61 | 1010.0 |
| 20260506144313 | 22 | 165 | 12.9 | 24.1 | 0.00 | 0.00 | 0.18 | 64 | 1010.0 |
| 20260506143812 | 21 | 151 | 14.5 | 17.7 | 0.00 | 0.00 | 0.18 | 64 | 1010.0 |
| 20260506143315 | 21 | 196 | 11.3 | 22.5 | 0.00 | 0.00 | 0.18 | 63 | 1010.0 |
| 20260506142814 | 22 | 190 | 11.3 | 25.7 | 0.00 | 0.00 | 0.18 | 63 | 1010.0 |
| 20260506142315 | 22 | 182 | 19.3 | 29.0 | 0.00 | 0.00 | 0.18 | 60 | 1010.0 |
| 20260506141812 | 22 | 157 | 22.5 | 27.4 | 0.00 | 0.00 | 0.18 | 61 | 1010.0 |
| 20260506141313 | 22 | 206 | 20.9 | 32.2 | 0.00 | 0.00 | 0.18 | 60 | 1010.0 |
| 20260506140813 | 22 | 187 | 17.7 | 25.7 | 0.00 | 0.00 | 0.18 | 62 | 1010.0 |
| 20260506140312 | 22 | 204 | 16.1 | 24.1 | 0.00 | 0.00 | 0.18 | 63 | 1010.0 |
| 20260506135813 | 22 | 198 | 14.5 | 32.2 | 0.00 | 0.00 | 0.18 | 61 | 1010.0 |
| 20260506135312 | 22 | 205 | 16.1 | 25.7 | 0.00 | 0.00 | 0.18 | 61 | 1010.0 |
| 20260506134812 | 22 | 177 | 11.3 | 22.5 | 0.00 | 0.00 | 0.18 | 62 | 1010.0 |
| 20260506134313 | 22 | 202 | 12.9 | 24.1 | 0.00 | 0.00 | 0.18 | 63 | 1011.0 |
| 20260506133813 | 22 | 175 | 14.5 | 20.9 | 0.00 | 0.00 | 0.18 | 62 | 1010.0 |
| 20260506133313 | 22 | 180 | 11.3 | 24.1 | 0.00 | 0.00 | 0.18 | 61 | 1011.0 |
| 20260506132813 | 22 | 205 | 19.3 | 25.7 | 0.00 | 0.00 | 0.18 | 63 | 1011.0 |
| 20260506132313 | 22 | 196 | 20.9 | 24.1 | 0.00 | 0.00 | 0.18 | 59 | 1011.0 |
| 20260506131814 | 22 | 209 | 17.7 | 33.8 | 0.00 | 0.00 | 0.18 | 59 | 1011.0 |
| 20260506131312 | 22 | 163 | 4.8 | 20.9 | 0.00 | 0.00 | 0.18 | 58 | 1011.0 |
| 20260506130812 | 22 | 195 | 11.3 | 16.1 | 0.00 | 0.00 | 0.18 | 60 | 1011.0 |
| 20260506130316 | 21 | 195 | 8.0 | 20.9 | 0.00 | 0.00 | 0.18 | 60 | 1011.0 |
| 20260506125813 | 21 | 144 | 16.1 | 17.7 | 0.00 | 0.00 | 0.18 | 63 | 1011.0 |
| 20260506125312 | 21 | 151 | 12.9 | 20.9 | 0.00 | 0.00 | 0.18 | 61 | 1011.0 |
| 20260506124813 | 21 | 169 | 14.5 | 22.5 | 0.00 | 0.00 | 0.18 | 60 | 1012.0 |
| 20260506124319 | 21 | 209 | 11.3 | 17.7 | 0.00 | 0.00 | 0.18 | 62 | 1012.0 |
| 20260506123813 | 21 | 160 | 11.3 | 17.7 | 0.00 | 0.00 | 0.18 | 61 | 1012.0 |
| 20260506123312 | 21 | 179 | 17.7 | 25.7 | 0.00 | 0.00 | 0.18 | 60 | 1011.0 |
| 20260506122812 | 21 | 198 | 9.7 | 12.9 | 0.00 | 0.00 | 0.18 | 65 | 1011.0 |
| 20260506122312 | 21 | 159 | 11.3 | 17.7 | 0.00 | 0.00 | 0.18 | 63 | 1011.0 |
| 20260506121813 | 21 | 177 | 14.5 | 22.5 | 0.00 | 0.00 | 0.18 | 62 | 1011.0 |
| 20260506121313 | 21 | 198 | 14.5 | 17.7 | 0.00 | 0.00 | 0.18 | 64 | 1011.0 |
| 20260506120812 | 21 | 202 | 16.1 | 22.5 | 0.00 | 0.00 | 0.18 | 61 | 1012.0 |
| 20260506120314 | 21 | 219 | 12.9 | 20.9 | 0.00 | 0.00 | 0.18 | 62 | 1012.0 |
| 20260506115813 | 21 | 202 | 8.0 | 22.5 | 0.00 | 0.00 | 0.18 | 63 | 1012.0 |
| 20260506115313 | 21 | 230 | 11.3 | 24.1 | 0.00 | 0.00 | 0.18 | 62 | 1011.0 |
| 20260506114812 | 22 | 201 | 20.9 | 25.7 | 0.00 | 0.00 | 0.18 | 63 | 1011.0 |
| 20260506114312 | 21 | 231 | 6.4 | 16.1 | 0.00 | 0.00 | 0.18 | 65 | 1011.0 |
| 20260506113817 | 21 | 178 | 11.3 | 17.7 | 0.00 | 0.00 | 0.18 | 63 | 1012.0 |
| 20260506113312 | 21 | 187 | 11.3 | 16.1 | 0.00 | 0.00 | 0.18 | 68 | 1012.0 |
| 20260506112812 | 21 | 210 | 8.0 | 12.9 | 0.00 | 0.00 | 0.18 | 65 | 1012.0 |
| 20260506112312 | 21 | 208 | 4.8 | 12.9 | 0.00 | 0.00 | 0.18 | 67 | 1012.0 |
| 20260506111812 | 21 | 225 | 8.0 | 11.3 | 0.00 | 0.00 | 0.18 | 67 | 1012.0 |
| 20260506111313 | 21 | 186 | 11.3 | 14.5 | 0.00 | 0.00 | 0.18 | 66 | 1012.0 |
| 20260506110813 | 21 | 207 | 8.0 | 14.5 | 0.00 | 0.00 | 0.18 | 69 | 1012.0 |
| 20260506110313 | 20 | 206 | 8.0 | 20.9 | 0.00 | 0.00 | 0.18 | 67 | 1012.0 |
| 20260506105813 | 20 | 207 | 11.3 | 20.9 | 0.00 | 0.00 | 0.18 | 69 | 1012.0 |
| 20260506105312 | 20 | 171 | 9.7 | 11.3 | 0.00 | 0.00 | 0.18 | 72 | 1012.0 |
| 20260506104813 | 20 | 185 | 9.7 | 16.1 | 0.00 | 0.00 | 0.18 | 70 | 1012.0 |
| 20260506104313 | 20 | 141 | 8.0 | 16.1 | 0.00 | 0.00 | 0.18 | 71 | 1012.0 |
| 20260506103812 | 20 | 185 | 11.3 | 16.1 | 0.00 | 0.00 | 0.18 | 70 | 1012.0 |
| 20260506103313 | 20 | 189 | 11.3 | 22.5 | 0.00 | 0.00 | 0.18 | 69 | 1012.0 |
| 20260506102817 | 20 | 181 | 14.5 | 22.5 | 0.00 | 0.00 | 0.18 | 69 | 1012.0 |
| 20260506102312 | 20 | 208 | 9.7 | 24.1 | 0.00 | 0.00 | 0.18 | 71 | 1012.0 |
| 20260506101813 | 20 | 221 | 14.5 | 22.5 | 0.00 | 0.00 | 0.18 | 70 | 1012.0 |
| 20260506101313 | 20 | 207 | 9.7 | 24.1 | 0.00 | 0.00 | 0.18 | 71 | 1012.0 |
| 20260506100813 | 20 | 212 | 12.9 | 22.5 | 0.00 | 0.00 | 0.18 | 70 | 1012.0 |
| 20260506100312 | 20 | 185 | 11.3 | 16.1 | 0.00 | 0.00 | 0.18 | 71 | 1012.0 |
| 20260506095812 | 20 | 200 | 14.5 | 17.7 | 0.00 | 0.00 | 0.18 | 71 | 1012.0 |
| 20260506095314 | 20 | 185 | 19.3 | 27.4 | 0.00 | 0.00 | 0.18 | 68 | 1012.0 |
| 20260506094813 | 20 | 229 | 9.7 | 16.1 | 0.00 | 0.00 | 0.18 | 69 | 1012.0 |
| 20260506094314 | 20 | 168 | 11.3 | 24.1 | 0.00 | 0.00 | 0.18 | 68 | 1012.0 |
| 20260506093813 | 20 | 203 | 8.0 | 20.9 | 0.00 | 0.00 | 0.18 | 70 | 1012.0 |
| 20260506093312 | 20 | 204 | 14.5 | 22.5 | 0.00 | 0.00 | 0.18 | 69 | 1012.0 |
| 20260506092813 | 20 | 174 | 9.7 | 22.5 | 0.00 | 0.00 | 0.18 | 70 | 1012.0 |
| 20260506092312 | 20 | 217 | 12.9 | 24.1 | 0.00 | 0.00 | 0.18 | 69 | 1012.0 |
| 20260506091812 | 20 | 190 | 19.3 | 27.4 | 0.00 | 0.00 | 0.18 | 71 | 1012.0 |
| 20260506091312 | 19 | 171 | 12.9 | 27.4 | 0.00 | 0.00 | 0.18 | 70 | 1012.0 |
| 20260506090812 | 19 | 146 | 14.5 | 20.9 | 0.00 | 0.00 | 0.18 | 70 | 1012.0 |
| 20260506090312 | 19 | 173 | 20.9 | 25.7 | 0.00 | 0.00 | 0.18 | 70 | 1012.0 |
| 20260506085812 | 19 | 161 | 12.9 | 16.1 | 0.00 | 0.00 | 0.18 | 71 | 1012.0 |
| 20260506085313 | 19 | 150 | 6.4 | 17.7 | 0.00 | 0.00 | 0.18 | 72 | 1012.0 |
| 20260506084813 | 19 | 119 | 9.7 | 16.1 | 0.00 | 0.00 | 0.18 | 71 | 1012.0 |
| 20260506084313 | 19 | 144 | 16.1 | 24.1 | 0.00 | 0.00 | 0.18 | 70 | 1012.0 |
| 20260506083813 | 19 | 200 | 9.7 | 20.9 | 0.00 | 0.00 | 0.18 | 72 | 1012.0 |